TimeCST,TemperatureF,Dew PointF,Humidity,Sea Level PressureIn,VisibilityMPH,Wind Direction,Wind SpeedMPH,Gust SpeedMPH,PrecipitationIn,Events,Conditions,WindDirDegrees,DateUTC
12:15 AM,30.4,27.9,90,30.05,0.8,Calm,Calm,-,0.03,Snow,Light Snow,0,2013-02-03 06:15:00
12:35 AM,30.6,28.2,91,30.04,1.5,Calm,Calm,-,0.03,Snow,Light Snow,0,2013-02-03 06:35:00
12:55 AM,30.6,28.4,92,30.04,4.0,Calm,Calm,-,0.03,Snow,Light Snow,0,2013-02-03 06:55:00
1:15 AM,30.7,28.4,91,30.04,4.0,Calm,Calm,-,N/A,,Overcast,0,2013-02-03 07:15:00
1:35 AM,30.9,28.8,92,30.03,4.0,Calm,Calm,-,N/A,Snow,Light Snow,0,2013-02-03 07:35:00
2:15 AM,30.9,28.8,92,30.03,5.0,Calm,Calm,-,N/A,,Overcast,0,2013-02-03 08:15:00
2:35 AM,30.4,28.4,92,30.03,4.0,Calm,Calm,-,N/A,,Overcast,0,2013-02-03 08:35:00
2:55 AM,30.7,28.8,92,30.02,4.0,Calm,Calm,-,N/A,,Overcast,0,2013-02-03 08:55:00
3:15 AM,31.1,29.1,92,30.02,5.0,Calm,Calm,-,N/A,,Overcast,0,2013-02-03 09:15:00
3:35 AM,31.3,29.3,92,30.01,5.0,Calm,Calm,-,N/A,,Overcast,0,2013-02-03 09:35:00
3:55 AM,32.2,30.6,94,30.01,3.0,WSW,3.5,-,N/A,,Overcast,240,2013-02-03 09:55:00
4:15 AM,29.1,27.0,92,30.01,2.0,West,3.5,-,N/A,,Overcast,270,2013-02-03 10:15:00
4:35 AM,27.5,25.7,93,30.02,0.5,West,6.9,-,N/A,Fog,Light Freezing Fog,270,2013-02-03 10:35:00
4:55 AM,27.9,26.1,93,30.02,3.0,West,8.1,-,N/A,,Scattered Clouds,260,2013-02-03 10:55:00
5:15 AM,32.2,31.1,96,30.03,7.0,West,8.1,-,N/A,,Mostly Cloudy,280,2013-02-03 11:15:00
5:35 AM,32.9,31.6,95,30.03,7.0,West,8.1,-,N/A,,Overcast,280,2013-02-03 11:35:00
5:55 AM,33.6,31.8,93,30.04,10.0,West,10.4,-,N/A,,Overcast,280,2013-02-03 11:55:00
6:50 AM,32.0,30.2,93,30.04,10.0,West,11.5,-,N/A,,Overcast,270,2013-02-03 12:50:00
7:50 AM,33.8,28.4,81,30.06,10.0,West,11.5,19.6,N/A,,Overcast,280,2013-02-03 13:50:00
8:50 AM,33.8,26.6,75,30.09,10.0,WNW,11.5,19.6,N/A,,Overcast,290,2013-02-03 14:50:00
9:50 AM,33.8,26.6,75,30.13,10.0,NNW,15.0,28.8,N/A,,Overcast,330,2013-02-03 15:50:00
10:53 AM,32.0,21.2,64,30.17,10.0,NW,15.0,26.5,N/A,,Mostly Cloudy,320,2013-02-03 16:53:00
11:50 AM,32.0,17.6,55,30.18,10.0,West,16.1,25.3,N/A,,Scattered Clouds,280,2013-02-03 17:50:00
12:50 PM,33.8,17.6,52,30.19,10.0,WNW,17.3,25.3,N/A,,Partly Cloudy,300,2013-02-03 18:50:00
1:50 PM,33.8,17.6,52,30.16,10.0,West,13.8,20.7,N/A,,Partly Cloudy,280,2013-02-03 19:50:00
2:50 PM,35.6,14.0,41,30.16,10.0,NW,13.8,-,N/A,,Partly Cloudy,310,2013-02-03 20:50:00
3:50 PM,35.6,15.8,44,30.16,10.0,WNW,8.1,-,N/A,,Scattered Clouds,300,2013-02-03 21:50:00
4:50 PM,35.6,14.0,41,30.14,10.0,NW,8.1,-,N/A,,Mostly Cloudy,310,2013-02-03 22:50:00
5:50 PM,32.0,15.8,51,30.14,10.0,Calm,Calm,-,N/A,,Clear,0,2013-02-03 23:50:00
6:50 PM,30.2,15.8,55,30.13,10.0,Calm,Calm,-,N/A,,Clear,0,2013-02-04 00:50:00
7:50 PM,28.4,17.6,64,30.11,10.0,Calm,Calm,-,N/A,,Clear,0,2013-02-04 01:50:00
8:50 PM,26.6,15.8,64,30.09,10.0,SE,6.9,-,N/A,,Clear,130,2013-02-04 02:50:00
9:15 PM,26.6,16.7,66,30.09,10.0,East,4.6,-,N/A,,Clear,100,2013-02-04 03:15:00
9:35 PM,25.5,16.0,67,30.08,10.0,ESE,5.8,-,N/A,,Clear,110,2013-02-04 03:35:00
9:50 PM,26.6,17.6,69,30.08,10.0,SE,9.2,-,N/A,,Clear,130,2013-02-04 03:50:00
9:55 PM,28.2,16.5,62,30.07,10.0,ESE,4.6,-,N/A,,Clear,110,2013-02-04 03:55:00
10:15 PM,28.2,17.2,63,30.06,10.0,ESE,5.8,-,N/A,,Clear,110,2013-02-04 04:15:00
10:35 PM,28.6,17.8,64,30.06,10.0,ESE,5.8,-,N/A,,Clear,120,2013-02-04 04:35:00
10:55 PM,27.9,19.4,71,30.05,10.0,ESE,6.9,-,N/A,,Clear,110,2013-02-04 04:55:00
11:15 PM,27.7,19.4,71,30.04,10.0,SE,8.1,-,N/A,,Clear,130,2013-02-04 05:15:00
11:35 PM,29.3,18.7,65,30.03,10.0,SE,9.2,-,N/A,,Clear,140,2013-02-04 05:35:00
11:55 PM,29.3,17.6,62,30.02,10.0,SE,6.9,-,N/A,,Clear,130,2013-02-04 05:55:00